Time;durP1;ratioP1;P1;durP2;ratioP2;P2;SDS_P1;SDS_P2;PMS_P1;PMS_P2;Temp;Humidity;BMP_temperature;BMP_pressure;BME280_temperature;BME280_humidity;BME280_pressure;Samples;Min_cycle;Max_cycle;Signal;HPM_P1;HPM_P2
2021/08/14 00:02:49;;;;;;;5.21;2.73;;;;;;;21.96;72.12;101006.92;;;;-50
2021/08/14 00:05:49;;;;;;;2.95;2.55;;;;;;;21.96;72.09;101005.30;;;;-51
2021/08/14 00:08:49;;;;;;;3.40;2.72;;;;;;;21.96;72.08;101004.72;;;;-51
2021/08/14 00:11:49;;;;;;;3.07;2.77;;;;;;;21.96;72.13;100999.66;;;;-50
2021/08/14 00:14:49;;;;;;;2.93;2.65;;;;;;;21.95;72.09;101002.01;;;;-48
2021/08/14 00:17:49;;;;;;;3.08;2.78;;;;;;;21.95;72.09;100999.56;;;;-55
2021/08/14 00:20:49;;;;;;;2.93;2.63;;;;;;;21.95;72.10;101001.68;;;;-50
2021/08/14 00:23:49;;;;;;;3.03;2.73;;;;;;;21.94;72.17;100999.73;;;;-50
2021/08/14 00:26:51;;;;;;;3.01;2.65;;;;;;;21.95;72.14;100994.50;;;;-50
2021/08/14 00:29:49;;;;;;;2.82;2.62;;;;;;;21.94;72.13;100988.39;;;;-55
2021/08/14 00:32:51;;;;;;;3.85;2.73;;;;;;;21.93;72.14;100984.78;;;;-50
2021/08/14 00:35:49;;;;;;;3.01;2.72;;;;;;;21.93;72.12;100984.21;;;;-50
2021/08/14 00:38:49;;;;;;;2.83;2.63;;;;;;;21.94;72.16;100993.28;;;;-51
2021/08/14 00:41:50;;;;;;;3.25;2.73;;;;;;;21.93;72.14;100988.70;;;;-55
2021/08/14 00:44:49;;;;;;;3.44;2.65;;;;;;;21.92;72.14;100989.04;;;;-55
2021/08/14 00:47:49;;;;;;;2.79;2.49;;;;;;;21.92;72.17;100993.28;;;;-48
2021/08/14 00:50:49;;;;;;;2.93;2.71;;;;;;;21.91;72.17;100990.07;;;;-50
2021/08/14 00:53:49;;;;;;;3.45;2.67;;;;;;;21.91;72.18;100991.70;;;;-55
2021/08/14 00:56:49;;;;;;;3.19;2.75;;;;;;;21.91;72.17;100993.50;;;;-55
2021/08/14 00:59:49;;;;;;;3.05;2.71;;;;;;;21.90;72.15;100991.72;;;;-51
2021/08/14 01:02:49;;;;;;;2.90;2.62;;;;;;;21.91;72.19;100989.91;;;;-48
2021/08/14 01:05:49;;;;;;;3.02;2.69;;;;;;;21.91;72.18;100985.02;;;;-54
2021/08/14 01:08:49;;;;;;;3.03;2.73;;;;;;;21.90;72.17;100988.45;;;;-55
2021/08/14 01:11:49;;;;;;;3.09;2.65;;;;;;;21.90;72.18;100996.37;;;;-51
2021/08/14 01:14:49;;;;;;;2.94;2.69;;;;;;;21.90;72.21;100989.59;;;;-56
2021/08/14 01:17:49;;;;;;;2.95;2.60;;;;;;;21.90;72.15;100991.72;;;;-55
2021/08/14 01:20:49;;;;;;;2.89;2.69;;;;;;;21.90;72.16;100988.62;;;;-56
2021/08/14 01:23:49;;;;;;;2.93;2.63;;;;;;;21.90;72.17;100984.37;;;;-56
2021/08/14 01:26:49;;;;;;;3.03;2.73;;;;;;;21.90;72.15;100985.19;;;;-57
2021/08/14 01:29:49;;;;;;;3.08;2.83;;;;;;;21.88;72.19;100976.69;;;;-50
2021/08/14 01:32:49;;;;;;;2.99;2.69;;;;;;;21.89;72.20;100974.64;;;;-50
2021/08/14 01:35:49;;;;;;;3.15;2.85;;;;;;;21.89;72.20;100971.46;;;;-48
2021/08/14 01:38:49;;;;;;;2.85;2.61;;;;;;;21.88;72.19;100966.00;;;;-48
2021/08/14 01:41:49;;;;;;;3.08;2.79;;;;;;;21.88;72.18;100969.91;;;;-48
2021/08/14 01:44:49;;;;;;;2.80;2.60;;;;;;;21.88;72.17;100964.05;;;;-48
2021/08/14 01:47:49;;;;;;;2.73;2.52;;;;;;;21.88;72.14;100968.05;;;;-47
2021/08/14 01:50:49;;;;;;;3.41;2.61;;;;;;;21.87;72.19;100961.28;;;;-48
2021/08/14 01:53:49;;;;;;;3.19;2.61;;;;;;;21.88;72.18;100965.11;;;;-48
2021/08/14 01:56:49;;;;;;;3.28;2.55;;;;;;;21.87;72.12;100963.23;;;;-48
2021/08/14 01:59:49;;;;;;;2.81;2.59;;;;;;;21.87;72.14;100965.03;;;;-48
2021/08/14 02:02:49;;;;;;;2.63;2.43;;;;;;;21.87;72.16;100968.05;;;;-47
2021/08/14 02:05:49;;;;;;;3.43;2.70;;;;;;;21.87;72.18;100971.70;;;;-48
2021/08/14 02:08:49;;;;;;;3.30;2.65;;;;;;;21.86;72.17;100974.80;;;;-48
2021/08/14 02:11:49;;;;;;;2.84;2.64;;;;;;;21.86;72.16;100971.70;;;;-48
2021/08/14 02:14:49;;;;;;;3.92;2.69;;;;;;;21.86;72.18;100965.74;;;;-48
2021/08/14 02:17:49;;;;;;;2.93;2.70;;;;;;;21.87;72.13;100975.05;;;;-50
2021/08/14 02:20:49;;;;;;;3.07;2.81;;;;;;;21.86;72.13;100966.73;;;;-50
2021/08/14 02:23:49;;;;;;;3.39;3.01;;;;;;;21.86;72.13;100965.25;;;;-51
2021/08/14 02:26:49;;;;;;;3.05;2.76;;;;;;;21.86;72.17;100962.66;;;;-50
2021/08/14 02:29:49;;;;;;;2.81;2.61;;;;;;;21.86;72.19;100963.95;;;;-50
2021/08/14 02:32:49;;;;;;;3.10;2.69;;;;;;;21.85;72.17;100961.34;;;;-47
2021/08/14 02:35:49;;;;;;;3.38;2.74;;;;;;;21.85;72.17;100958.33;;;;-48
2021/08/14 02:38:49;;;;;;;3.10;2.80;;;;;;;21.85;72.15;100956.45;;;;-48
2021/08/14 02:41:49;;;;;;;3.00;2.70;;;;;;;21.85;72.17;100951.77;;;;-48
2021/08/14 02:44:49;;;;;;;2.73;2.53;;;;;;;21.85;72.12;100955.37;;;;-48
2021/08/14 02:47:49;;;;;;;2.97;2.67;;;;;;;21.85;72.15;100953.82;;;;-51
2021/08/14 02:50:49;;;;;;;2.99;2.69;;;;;;;21.84;72.18;100953.01;;;;-51
2021/08/14 02:53:49;;;;;;;3.10;2.80;;;;;;;21.84;72.18;100953.25;;;;-51
2021/08/14 02:56:49;;;;;;;2.78;2.57;;;;;;;21.84;72.18;100955.30;;;;-51
2021/08/14 02:59:49;;;;;;;3.25;2.95;;;;;;;21.84;72.18;100954.72;;;;-51
2021/08/14 03:02:49;;;;;;;2.87;2.67;;;;;;;21.84;72.21;100954.80;;;;-50
2021/08/14 03:05:49;;;;;;;2.89;2.60;;;;;;;21.83;72.20;100955.47;;;;-51
2021/08/14 03:08:49;;;;;;;2.96;2.68;;;;;;;21.83;72.22;100960.12;;;;-51
2021/08/14 03:11:49;;;;;;;3.59;2.83;;;;;;;21.82;72.22;100956.50;;;;-47
2021/08/14 03:14:49;;;;;;;2.81;2.61;;;;;;;21.82;72.21;100960.09;;;;-48
2021/08/14 03:17:49;;;;;;;2.87;2.67;;;;;;;21.83;72.23;100959.70;;;;-50
2021/08/14 03:20:49;;;;;;;2.83;2.57;;;;;;;21.82;72.20;100960.42;;;;-51
2021/08/14 03:23:49;;;;;;;3.03;2.71;;;;;;;21.82;72.24;100962.55;;;;-51
2021/08/14 03:26:49;;;;;;;2.78;2.58;;;;;;;21.82;72.28;100966.70;;;;-51
2021/08/14 03:29:49;;;;;;;2.67;2.47;;;;;;;21.82;72.27;100967.77;;;;-50
2021/08/14 03:32:49;;;;;;;2.85;2.57;;;;;;;21.82;72.28;100967.28;;;;-50
2021/08/14 03:35:49;;;;;;;2.79;2.59;;;;;;;21.81;72.22;100960.27;;;;-48
2021/08/14 03:38:49;;;;;;;2.90;2.70;;;;;;;21.82;72.29;100963.20;;;;-48
2021/08/14 03:41:49;;;;;;;2.73;2.53;;;;;;;21.81;72.26;100962.80;;;;-51
2021/08/14 03:44:49;;;;;;;2.81;2.48;;;;;;;21.81;72.31;100956.44;;;;-48
2021/08/14 03:47:49;;;;;;;3.19;2.85;;;;;;;21.81;72.26;100956.92;;;;-55
2021/08/14 03:50:49;;;;;;;3.18;2.88;;;;;;;21.80;72.32;100957.23;;;;-56
2021/08/14 03:53:49;;;;;;;2.93;2.71;;;;;;;21.80;72.31;100952.91;;;;-50
2021/08/14 03:56:49;;;;;;;3.49;2.89;;;;;;;21.80;72.30;100958.20;;;;-55
2021/08/14 03:59:49;;;;;;;3.11;2.84;;;;;;;21.80;72.32;100956.50;;;;-55
2021/08/14 04:02:49;;;;;;;3.11;2.63;;;;;;;21.79;72.33;100956.26;;;;-55
2021/08/14 04:05:49;;;;;;;3.15;2.86;;;;;;;21.79;72.34;100956.17;;;;-55
2021/08/14 04:08:49;;;;;;;3.20;2.90;;;;;;;21.79;72.34;100960.75;;;;-55
2021/08/14 04:11:49;;;;;;;3.10;2.81;;;;;;;21.79;72.34;100958.11;;;;-55
2021/08/14 04:14:49;;;;;;;2.94;2.74;;;;;;;21.79;72.37;100958.55;;;;-55
2021/08/14 04:17:49;;;;;;;3.05;2.83;;;;;;;21.79;72.33;100959.74;;;;-56
2021/08/14 04:20:49;;;;;;;3.17;2.87;;;;;;;21.78;72.39;100963.58;;;;-54
2021/08/14 04:23:49;;;;;;;2.95;2.75;;;;;;;21.78;72.33;100961.88;;;;-48
2021/08/14 04:26:49;;;;;;;3.10;2.80;;;;;;;21.78;72.35;100959.58;;;;-48
2021/08/14 04:29:49;;;;;;;3.17;2.87;;;;;;;21.78;72.34;100964.08;;;;-48
2021/08/14 04:32:50;;;;;;;3.03;2.73;;;;;;;21.78;72.35;100960.00;;;;-48
2021/08/14 04:35:49;;;;;;;2.89;2.64;;;;;;;21.78;72.31;100959.26;;;;-48
2021/08/14 04:38:50;;;;;;;2.90;2.70;;;;;;;21.78;72.34;100965.30;;;;-48
2021/08/14 04:41:49;;;;;;;2.93;2.71;;;;;;;21.78;72.32;100971.83;;;;-48
2021/08/14 04:44:49;;;;;;;2.88;2.68;;;;;;;21.77;72.34;100965.87;;;;-48
2021/08/14 04:47:50;;;;;;;3.11;2.81;;;;;;;21.77;72.34;100962.20;;;;-47
2021/08/14 04:50:49;;;;;;;3.03;2.66;;;;;;;21.78;72.36;100964.32;;;;-48
2021/08/14 04:53:49;;;;;;;3.01;2.81;;;;;;;21.78;72.32;100960.32;;;;-48
2021/08/14 04:56:49;;;;;;;3.55;2.73;;;;;;;21.77;72.35;100960.66;;;;-48
2021/08/14 04:59:50;;;;;;;3.07;2.77;;;;;;;21.77;72.34;100957.56;;;;-48
2021/08/14 05:02:49;;;;;;;2.91;2.62;;;;;;;21.77;72.35;100956.09;;;;-48
2021/08/14 05:05:50;;;;;;;2.71;2.51;;;;;;;21.77;72.36;100959.59;;;;-47
2021/08/14 05:08:49;;;;;;;3.00;2.80;;;;;;;21.77;72.37;100960.17;;;;-48
2021/08/14 05:11:49;;;;;;;3.09;2.68;;;;;;;21.77;72.33;100957.77;;;;-48
2021/08/14 05:14:49;;;;;;;2.75;2.51;;;;;;;21.77;72.34;100958.27;;;;-48
2021/08/14 05:17:49;;;;;;;3.28;2.73;;;;;;;21.77;72.34;100955.33;;;;-48
2021/08/14 05:20:49;;;;;;;2.88;2.68;;;;;;;21.77;72.34;100959.84;;;;-48
2021/08/14 05:23:49;;;;;;;3.03;2.73;;;;;;;21.76;72.30;100958.67;;;;-48
2021/08/14 05:26:49;;;;;;;3.13;2.83;;;;;;;21.76;72.38;100964.22;;;;-47
2021/08/14 05:29:49;;;;;;;2.87;2.67;;;;;;;21.76;72.32;100963.09;;;;-48
2021/08/14 05:32:49;;;;;;;2.81;2.60;;;;;;;21.76;72.34;100960.56;;;;-48
2021/08/14 05:35:49;;;;;;;7.71;6.17;;;;;;;21.74;73.43;100966.50;;;;-48
2021/08/14 05:38:49;;;;;;;9.12;7.81;;;;;;;21.62;74.50;100968.96;;;;-48
2021/08/14 05:41:52;;;;;;;9.64;8.00;;;;;;;21.54;75.34;100965.92;;;;-48
2021/08/14 05:44:49;;;;;;;9.79;8.53;;;;;;;21.53;75.33;100969.24;;;;-48
2021/08/14 05:47:49;;;;;;;10.30;8.33;;;;;;;21.50;75.56;100969.08;;;;-48
2021/08/14 05:50:49;;;;;;;11.50;8.64;;;;;;;21.51;75.31;100971.69;;;;-48
2021/08/14 05:53:49;;;;;;;14.19;8.56;;;;;;;21.55;74.79;100972.77;;;;-48
2021/08/14 05:56:49;;;;;;;8.81;7.94;;;;;;;21.58;74.79;100972.69;;;;-48
2021/08/14 05:59:49;;;;;;;10.57;8.44;;;;;;;21.60;74.66;100974.17;;;;-48
2021/08/14 06:02:49;;;;;;;10.45;8.70;;;;;;;21.62;74.24;100971.98;;;;-48
2021/08/14 06:05:49;;;;;;;8.90;8.00;;;;;;;21.64;74.05;100969.16;;;;-48
2021/08/14 06:08:49;;;;;;;10.23;8.09;;;;;;;21.65;73.91;100967.61;;;;-48
2021/08/14 06:11:49;;;;;;;9.94;7.59;;;;;;;21.66;73.87;100966.95;;;;-48
2021/08/14 06:14:49;;;;;;;8.51;7.67;;;;;;;21.67;73.77;100965.50;;;;-48
2021/08/14 06:17:49;;;;;;;8.19;7.29;;;;;;;21.66;73.66;100965.55;;;;-48
2021/08/14 06:20:49;;;;;;;10.07;7.87;;;;;;;21.68;73.59;100971.69;;;;-48
2021/08/14 06:23:49;;;;;;;8.95;7.70;;;;;;;21.68;73.56;100971.36;;;;-48
2021/08/14 06:26:49;;;;;;;9.89;7.40;;;;;;;21.68;73.48;100970.14;;;;-48
2021/08/14 06:29:49;;;;;;;8.71;7.75;;;;;;;21.68;73.47;100968.83;;;;-48
2021/08/14 06:32:49;;;;;;;8.81;7.91;;;;;;;21.68;73.41;100971.77;;;;-48
2021/08/14 06:35:49;;;;;;;8.67;7.21;;;;;;;21.69;73.35;100976.36;;;;-48
2021/08/14 06:38:49;;;;;;;7.93;7.17;;;;;;;21.69;73.34;100975.95;;;;-48
2021/08/14 06:41:49;;;;;;;8.26;7.46;;;;;;;21.69;73.33;100975.95;;;;-48
2021/08/14 06:44:49;;;;;;;8.07;7.27;;;;;;;21.69;73.28;100976.19;;;;-48
2021/08/14 06:47:49;;;;;;;8.01;7.09;;;;;;;21.69;73.28;100976.03;;;;-50
2021/08/14 06:50:49;;;;;;;7.90;7.15;;;;;;;21.69;73.23;100976.77;;;;-50
2021/08/14 06:53:50;;;;;;;7.94;6.86;;;;;;;21.69;73.21;100971.70;;;;-51
2021/08/14 06:56:49;;;;;;;7.99;7.19;;;;;;;21.69;73.19;100968.20;;;;-50
2021/08/14 06:59:49;;;;;;;7.78;6.89;;;;;;;21.69;73.17;100968.61;;;;-50
2021/08/14 07:02:49;;;;;;;7.67;6.94;;;;;;;21.70;73.17;100973.41;;;;-50
2021/08/14 07:05:49;;;;;;;8.03;7.23;;;;;;;21.70;73.12;100970.64;;;;-48
2021/08/14 07:08:49;;;;;;;7.91;7.11;;;;;;;21.70;73.13;100972.59;;;;-55
2021/08/14 07:11:49;;;;;;;8.66;7.13;;;;;;;21.69;73.10;100973.09;;;;-50
2021/08/14 07:14:49;;;;;;;7.57;6.87;;;;;;;21.69;73.05;100971.30;;;;-48
2021/08/14 07:17:50;;;;;;;7.84;7.10;;;;;;;21.69;73.05;100972.11;;;;-47
2021/08/14 07:20:49;;;;;;;7.55;6.85;;;;;;;21.70;73.05;100977.08;;;;-51
2021/08/14 07:23:49;;;;;;;7.57;6.87;;;;;;;21.70;73.02;100974.71;;;;-55
2021/08/14 07:26:49;;;;;;;7.47;6.72;;;;;;;21.70;73.02;100973.73;;;;-50
2021/08/14 07:29:49;;;;;;;7.68;6.88;;;;;;;21.70;72.99;100969.41;;;;-50
2021/08/14 07:32:49;;;;;;;7.33;6.61;;;;;;;21.70;72.96;100974.96;;;;-50
2021/08/14 07:35:49;;;;;;;7.29;6.59;;;;;;;21.70;72.96;100973.66;;;;-50
2021/08/14 07:38:49;;;;;;;7.48;6.78;;;;;;;21.70;72.92;100976.34;;;;-50
2021/08/14 07:41:49;;;;;;;7.89;7.07;;;;;;;21.69;72.96;100971.22;;;;-56
2021/08/14 07:44:49;;;;;;;7.26;6.56;;;;;;;21.70;72.95;100972.52;;;;-55
2021/08/14 07:47:50;;;;;;;7.43;6.73;;;;;;;21.70;72.90;100972.44;;;;-56
2021/08/14 07:50:49;;;;;;;7.53;6.72;;;;;;;21.70;72.94;100972.92;;;;-55
2021/08/14 07:53:49;;;;;;;7.63;6.83;;;;;;;21.70;72.88;100969.74;;;;-55
2021/08/14 07:56:49;;;;;;;7.57;6.86;;;;;;;21.70;72.87;100973.41;;;;-56
2021/08/14 07:59:49;;;;;;;7.47;6.75;;;;;;;21.71;72.89;100974.00;;;;-56
2021/08/14 08:02:49;;;;;;;7.41;6.71;;;;;;;21.70;72.88;100972.75;;;;-55
2021/08/14 08:05:49;;;;;;;6.98;6.32;;;;;;;21.70;72.86;100970.64;;;;-55
2021/08/14 08:08:49;;;;;;;6.88;6.18;;;;;;;21.70;72.86;100969.74;;;;-56
2021/08/14 08:11:49;;;;;;;7.23;6.53;;;;;;;21.70;72.86;100967.70;;;;-55
2021/08/14 08:14:49;;;;;;;7.83;6.64;;;;;;;21.70;73.08;100963.38;;;;-55
2021/08/14 08:17:49;;;;;;;8.11;6.42;;;;;;;21.72;73.21;100964.85;;;;-52
2021/08/14 08:20:49;;;;;;;7.17;6.47;;;;;;;21.74;73.17;100966.75;;;;-54
2021/08/14 08:23:49;;;;;;;6.99;6.29;;;;;;;21.74;73.26;100959.97;;;;-58
2021/08/14 08:26:49;;;;;;;6.93;6.23;;;;;;;21.76;73.40;100959.09;;;;-52
2021/08/14 08:29:49;;;;;;;7.03;6.33;;;;;;;21.78;73.30;100958.03;;;;-50
2021/08/14 08:32:49;;;;;;;6.79;6.15;;;;;;;21.79;73.27;100953.66;;;;-51
2021/08/14 08:35:49;;;;;;;7.09;6.37;;;;;;;21.81;73.35;100950.61;;;;-49
2021/08/14 08:38:49;;;;;;;7.03;6.33;;;;;;;21.83;73.28;100950.57;;;;-56
2021/08/14 08:41:49;;;;;;;7.05;5.89;;;;;;;21.85;73.33;100948.19;;;;-53
2021/08/14 08:44:49;;;;;;;6.72;6.01;;;;;;;21.86;73.46;100943.06;;;;-51
2021/08/14 08:47:50;;;;;;;7.95;5.71;;;;;;;21.87;73.24;100938.32;;;;-54
2021/08/14 08:50:49;;;;;;;6.76;6.00;;;;;;;21.86;73.22;100935.96;;;;-54
2021/08/14 08:53:49;;;;;;;9.61;6.06;;;;;;;21.87;73.44;100933.91;;;;-47
2021/08/14 08:56:49;;;;;;;7.34;6.03;;;;;;;21.88;73.41;100931.81;;;;-51
2021/08/14 08:59:49;;;;;;;7.25;5.89;;;;;;;21.89;73.35;100928.70;;;;-50
2021/08/14 09:02:52;;;;;;;6.83;5.86;;;;;;;21.91;73.33;100931.81;;;;-50
2021/08/14 09:05:49;;;;;;;7.83;6.28;;;;;;;21.92;73.54;100927.99;;;;-52
2021/08/14 09:08:49;;;;;;;7.57;5.97;;;;;;;21.94;73.36;100931.43;;;;-50
2021/08/14 09:11:50;;;;;;;7.52;5.63;;;;;;;21.95;73.37;100928.88;;;;-51
2021/08/14 09:14:49;;;;;;;7.27;6.02;;;;;;;21.96;73.09;100923.68;;;;-58
2021/08/14 09:17:49;;;;;;;7.07;5.73;;;;;;;21.98;73.34;100921.90;;;;-59
2021/08/14 09:20:49;;;;;;;9.92;5.99;;;;;;;21.98;73.45;100915.69;;;;-59
2021/08/14 09:23:49;;;;;;;7.91;5.65;;;;;;;22.02;73.43;100913.08;;;;-50
2021/08/14 09:26:49;;;;;;;9.39;5.74;;;;;;;22.02;73.28;100911.22;;;;-49
2021/08/14 09:29:49;;;;;;;9.53;5.71;;;;;;;22.03;73.37;100913.48;;;;-51
2021/08/14 09:32:49;;;;;;;7.45;5.57;;;;;;;22.05;73.32;100909.18;;;;-51
2021/08/14 09:35:49;;;;;;;8.63;5.64;;;;;;;22.06;73.40;100909.60;;;;-52
2021/08/14 09:38:49;;;;;;;7.34;5.35;;;;;;;22.06;73.25;100912.53;;;;-59
2021/08/14 09:41:49;;;;;;;6.65;5.81;;;;;;;22.07;73.41;100908.28;;;;-59
2021/08/14 09:44:49;;;;;;;7.15;5.82;;;;;;;22.08;73.15;100908.87;;;;-58
2021/08/14 09:47:51;;;;;;;6.23;5.50;;;;;;;22.09;73.18;100905.67;;;;-58
2021/08/14 09:50:49;;;;;;;10.13;5.59;;;;;;;22.09;73.29;100904.69;;;;-57
2021/08/14 09:53:49;;;;;;;8.03;5.60;;;;;;;22.10;73.17;100900.61;;;;-61
2021/08/14 09:56:49;;;;;;;7.07;5.55;;;;;;;22.10;73.19;100899.65;;;;-57
2021/08/14 09:59:49;;;;;;;6.93;5.55;;;;;;;22.11;73.20;100895.97;;;;-52
2021/08/14 10:02:49;;;;;;;6.70;5.42;;;;;;;22.12;73.18;100896.45;;;;-53
2021/08/14 10:05:49;;;;;;;6.19;5.43;;;;;;;22.12;73.23;100893.38;;;;-55
2021/08/14 10:08:49;;;;;;;6.76;5.64;;;;;;;22.13;73.22;100887.81;;;;-52
2021/08/14 10:11:51;;;;;;;6.45;5.50;;;;;;;22.14;73.23;100883.72;;;;-59
2021/08/14 10:14:49;;;;;;;7.49;6.77;;;;;;;22.14;73.19;100880.62;;;;-56
2021/08/14 10:17:49;;;;;;;7.34;5.58;;;;;;;22.15;73.10;100872.88;;;;-52
2021/08/14 10:20:49;;;;;;;6.67;5.19;;;;;;;22.14;73.00;100876.07;;;;-52
2021/08/14 10:23:49;;;;;;;7.49;5.21;;;;;;;22.14;73.13;100874.93;;;;-52
2021/08/14 10:26:49;;;;;;;7.87;5.59;;;;;;;22.14;73.01;100874.00;;;;-52
2021/08/14 10:29:49;;;;;;;5.70;5.10;;;;;;;22.13;73.00;100870.34;;;;-52
2021/08/14 10:32:50;;;;;;;5.79;5.17;;;;;;;22.13;72.96;100865.12;;;;-52
2021/08/14 10:35:49;;;;;;;6.17;5.49;;;;;;;22.13;73.00;100863.41;;;;-52
2021/08/14 10:38:50;;;;;;;7.00;5.22;;;;;;;22.12;72.92;100853.43;;;;-52
2021/08/14 10:41:50;;;;;;;5.91;5.24;;;;;;;22.12;72.90;100852.53;;;;-52
2021/08/14 10:44:52;;;;;;;6.59;5.02;;;;;;;22.11;72.92;100848.95;;;;-52
2021/08/14 10:47:50;;;;;;;5.87;5.03;;;;;;;22.11;72.81;100841.69;;;;-52
2021/08/14 10:50:49;;;;;;;5.68;5.07;;;;;;;22.11;72.84;100843.40;;;;-52
2021/08/14 10:53:50;;;;;;;6.18;5.24;;;;;;;22.10;72.76;100837.05;;;;-52
2021/08/14 10:56:49;;;;;;;6.09;5.27;;;;;;;22.10;72.75;100833.78;;;;-51
2021/08/14 10:59:49;;;;;;;7.66;4.85;;;;;;;22.11;72.75;100836.06;;;;-52
2021/08/14 11:02:49;;;;;;;5.32;4.82;;;;;;;22.10;72.69;100830.08;;;;-52
2021/08/14 11:05:49;;;;;;;5.29;4.78;;;;;;;22.10;72.73;100829.70;;;;-52
2021/08/14 11:08:49;;;;;;;5.57;5.04;;;;;;;22.09;72.73;100822.09;;;;-51
2021/08/14 11:11:49;;;;;;;5.30;4.78;;;;;;;22.09;72.68;100822.25;;;;-52
2021/08/14 11:14:49;;;;;;;5.76;4.95;;;;;;;22.09;72.70;100819.80;;;;-51
2021/08/14 11:17:49;;;;;;;5.47;4.95;;;;;;;22.09;72.60;100812.38;;;;-51
2021/08/14 11:20:49;;;;;;;5.62;4.89;;;;;;;22.09;72.60;100809.68;;;;-51
2021/08/14 11:23:49;;;;;;;5.64;5.14;;;;;;;22.09;72.60;100809.52;;;;-51
2021/08/14 11:26:49;;;;;;;6.19;4.87;;;;;;;22.09;72.61;100798.09;;;;-50
2021/08/14 11:29:49;;;;;;;5.41;4.82;;;;;;;22.08;72.60;100794.34;;;;-51
2021/08/14 11:32:49;;;;;;;5.27;4.77;;;;;;;22.09;72.57;100795.08;;;;-59
2021/08/14 11:35:49;;;;;;;5.33;4.82;;;;;;;22.08;72.56;100788.14;;;;-59
2021/08/14 11:38:49;;;;;;;5.79;4.65;;;;;;;22.08;72.56;100785.13;;;;-58
2021/08/14 11:41:49;;;;;;;5.52;4.68;;;;;;;22.07;72.54;100783.55;;;;-59
2021/08/14 11:44:49;;;;;;;5.87;4.92;;;;;;;22.07;72.49;100777.19;;;;-58
2021/08/14 11:47:49;;;;;;;4.86;4.45;;;;;;;22.07;72.57;100775.31;;;;-59
2021/08/14 11:50:49;;;;;;;5.23;4.53;;;;;;;22.07;72.54;100772.63;;;;-52
2021/08/14 11:53:49;;;;;;;5.09;4.62;;;;;;;22.07;72.51;100764.30;;;;-51
2021/08/14 11:56:49;;;;;;;5.14;4.65;;;;;;;22.07;72.48;100768.30;;;;-51
2021/08/14 11:59:49;;;;;;;4.81;4.41;;;;;;;22.07;72.47;100766.67;;;;-51
2021/08/14 12:02:49;;;;;;;5.04;4.55;;;;;;;22.06;72.45;100765.45;;;;-53
2021/08/14 12:05:49;;;;;;;5.01;4.51;;;;;;;22.06;72.44;100764.80;;;;-52
2021/08/14 12:08:49;;;;;;;5.25;4.75;;;;;;;22.06;72.49;100757.84;;;;-52
2021/08/14 12:11:49;;;;;;;5.23;4.73;;;;;;;22.06;72.48;100757.35;;;;-53
2021/08/14 12:14:49;;;;;;;5.23;4.64;;;;;;;22.05;72.51;100751.81;;;;-50
2021/08/14 12:17:49;;;;;;;8.75;4.71;;;;;;;22.07;72.75;100750.26;;;;-52
2021/08/14 12:20:49;;;;;;;6.51;4.77;;;;;;;22.09;72.74;100745.37;;;;-50
2021/08/14 12:23:49;;;;;;;5.22;4.72;;;;;;;22.10;72.81;100741.44;;;;-51
2021/08/14 12:26:49;;;;;;;5.30;4.72;;;;;;;22.10;72.80;100736.70;;;;-51
2021/08/14 12:29:49;;;;;;;5.67;4.70;;;;;;;22.11;72.89;100734.18;;;;-58
2021/08/14 12:32:51;;;;;;;5.42;4.43;;;;;;;22.13;72.70;100736.56;;;;-59
2021/08/14 12:35:49;;;;;;;6.11;4.55;;;;;;;22.12;72.70;100733.05;;;;-53
2021/08/14 12:38:50;;;;;;;9.19;4.93;;;;;;;22.11;72.80;100726.84;;;;-51
2021/08/14 12:41:49;;;;;;;5.81;4.52;;;;;;;22.12;72.72;100727.41;;;;-52
2021/08/14 12:44:49;;;;;;;9.65;4.67;;;;;;;22.12;72.73;100728.70;;;;-52
2021/08/14 12:47:49;;;;;;;5.27;4.47;;;;;;;22.12;72.73;100727.39;;;;-48
2021/08/14 12:50:49;;;;;;;6.11;4.57;;;;;;;22.12;72.81;100721.19;;;;-50
2021/08/14 12:53:49;;;;;;;6.45;4.64;;;;;;;22.14;72.85;100716.47;;;;-54
2021/08/14 12:56:49;;;;;;;5.45;4.35;;;;;;;22.15;72.82;100710.76;;;;-52
2021/08/14 12:59:49;;;;;;;5.13;4.43;;;;;;;22.16;72.86;100707.00;;;;-54
2021/08/14 13:02:49;;;;;;;6.46;4.26;;;;;;;22.17;72.81;100703.33;;;;-52
2021/08/14 13:05:49;;;;;;;4.89;4.02;;;;;;;22.17;72.82;100693.69;;;;-55
2021/08/14 13:08:49;;;;;;;6.18;4.48;;;;;;;22.19;72.80;100688.06;;;;-54
2021/08/14 13:11:49;;;;;;;4.84;4.30;;;;;;;22.20;72.75;100684.53;;;;-55
2021/08/14 13:14:49;;;;;;;5.91;4.39;;;;;;;22.21;72.86;100681.86;;;;-51
2021/08/14 13:17:49;;;;;;;5.32;4.13;;;;;;;22.22;72.83;100681.84;;;;-51
2021/08/14 13:20:49;;;;;;;4.73;4.13;;;;;;;22.23;72.77;100679.08;;;;-53
2021/08/14 13:23:49;;;;;;;5.33;4.21;;;;;;;22.23;72.86;100679.90;;;;-55
2021/08/14 13:26:49;;;;;;;4.99;4.28;;;;;;;22.24;72.88;100677.30;;;;-58
2021/08/14 13:29:49;;;;;;;6.12;4.02;;;;;;;22.25;72.81;100675.35;;;;-57
2021/08/14 13:32:49;;;;;;;4.43;4.03;;;;;;;22.25;72.87;100673.06;;;;-57
2021/08/14 13:35:51;;;;;;;6.63;4.20;;;;;;;22.27;72.88;100673.31;;;;-58
2021/08/14 13:38:49;;;;;;;5.62;4.21;;;;;;;22.27;72.77;100669.62;;;;-61
2021/08/14 13:41:49;;;;;;;6.31;4.19;;;;;;;22.28;72.87;100663.49;;;;-58
2021/08/14 13:44:49;;;;;;;4.34;3.83;;;;;;;22.29;72.82;100662.20;;;;-54
2021/08/14 13:47:49;;;;;;;5.40;4.01;;;;;;;22.30;72.69;100667.08;;;;-51
2021/08/14 13:50:49;;;;;;;5.50;4.13;;;;;;;22.30;72.81;100662.26;;;;-59
2021/08/14 13:53:49;;;;;;;4.23;3.83;;;;;;;22.31;72.69;100659.59;;;;-51
2021/08/14 13:56:49;;;;;;;4.74;3.94;;;;;;;22.32;72.73;100659.17;;;;-48
2021/08/14 13:59:49;;;;;;;6.62;3.99;;;;;;;22.31;72.74;100659.18;;;;-48
2021/08/14 14:02:49;;;;;;;4.41;4.01;;;;;;;22.32;72.73;100663.49;;;;-58
2021/08/14 14:05:49;;;;;;;4.31;3.91;;;;;;;22.32;72.73;100658.91;;;;-49
2021/08/14 14:08:49;;;;;;;7.10;4.05;;;;;;;22.33;72.78;100656.21;;;;-48
2021/08/14 14:11:49;;;;;;;4.32;3.91;;;;;;;22.33;72.66;100660.72;;;;-51
2021/08/14 14:14:49;;;;;;;4.33;3.92;;;;;;;22.33;72.65;100659.83;;;;-52
2021/08/14 14:17:49;;;;;;;4.38;3.81;;;;;;;22.32;72.74;100659.00;;;;-59
2021/08/14 14:20:49;;;;;;;4.66;4.01;;;;;;;22.32;72.69;100657.29;;;;-59
2021/08/14 14:23:49;;;;;;;6.02;3.96;;;;;;;22.31;72.62;100658.12;;;;-60
2021/08/14 14:26:49;;;;;;;4.25;3.85;;;;;;;22.32;72.61;100657.86;;;;-59
2021/08/14 14:29:49;;;;;;;4.87;4.05;;;;;;;22.30;72.56;100654.10;;;;-55
2021/08/14 14:32:49;;;;;;;4.75;4.03;;;;;;;22.30;72.70;100651.64;;;;-53
2021/08/14 14:35:49;;;;;;;4.15;3.71;;;;;;;22.31;72.67;100648.07;;;;-54
2021/08/14 14:38:49;;;;;;;4.23;3.83;;;;;;;22.32;72.65;100644.70;;;;-50
2021/08/14 14:41:49;;;;;;;4.19;3.79;;;;;;;22.33;72.62;100642.52;;;;-57
2021/08/14 14:44:51;;;;;;;6.09;3.62;;;;;;;22.34;72.68;100637.84;;;;-56
2021/08/14 14:47:49;;;;;;;4.97;3.72;;;;;;;22.35;72.59;100636.63;;;;-55
2021/08/14 14:50:49;;;;;;;4.33;3.69;;;;;;;22.36;72.62;100631.47;;;;-53
2021/08/14 14:53:49;;;;;;;7.69;3.78;;;;;;;22.36;72.74;100624.94;;;;-52
2021/08/14 14:56:49;;;;;;;5.27;3.78;;;;;;;22.37;72.74;100625.03;;;;-48
2021/08/14 14:59:49;;;;;;;4.45;4.05;;;;;;;22.38;72.74;100624.53;;;;-52
2021/08/14 15:02:49;;;;;;;3.97;3.61;;;;;;;22.38;72.75;100624.03;;;;-53
2021/08/14 15:05:49;;;;;;;4.00;3.59;;;;;;;22.38;72.68;100622.97;;;;-53
2021/08/14 15:08:49;;;;;;;10.71;3.75;;;;;;;22.38;72.65;100615.12;;;;-54
2021/08/14 15:11:49;;;;;;;4.23;3.52;;;;;;;22.39;72.61;100612.75;;;;-53
2021/08/14 15:14:49;;;;;;;4.67;3.88;;;;;;;22.37;72.59;100601.75;;;;-57
2021/08/14 15:17:49;;;;;;;3.93;3.52;;;;;;;22.37;72.56;100603.80;;;;-53
2021/08/14 15:20:49;;;;;;;4.97;3.78;;;;;;;22.36;72.53;100607.30;;;;-53
2021/08/14 15:23:49;;;;;;;6.11;3.93;;;;;;;22.37;72.60;100601.82;;;;-51
2021/08/14 15:26:49;;;;;;;5.31;3.46;;;;;;;22.37;72.59;100597.59;;;;-52
2021/08/14 15:29:49;;;;;;;5.59;3.72;;;;;;;22.37;72.61;100592.61;;;;-50
2021/08/14 15:32:49;;;;;;;6.04;3.68;;;;;;;22.39;72.86;100593.42;;;;-49
2021/08/14 15:35:49;;;;;;;5.03;3.69;;;;;;;22.40;72.60;100590.78;;;;-50
2021/08/14 15:38:49;;;;;;;4.90;3.74;;;;;;;22.41;72.70;100591.05;;;;-51
2021/08/14 15:41:49;;;;;;;4.94;3.57;;;;;;;22.42;72.77;100591.35;;;;-56
2021/08/14 15:44:49;;;;;;;4.57;3.64;;;;;;;22.43;72.65;100586.37;;;;-56
2021/08/14 15:47:50;;;;;;;4.00;3.57;;;;;;;22.43;72.65;100587.91;;;;-51
2021/08/14 15:50:49;;;;;;;6.01;3.59;;;;;;;22.44;72.67;100587.36;;;;-51
2021/08/14 15:53:49;;;;;;;5.07;3.72;;;;;;;22.44;72.60;100583.92;;;;-52
2021/08/14 15:56:49;;;;;;;5.61;3.72;;;;;;;22.45;72.64;100579.50;;;;-51
2021/08/14 15:59:49;;;;;;;4.18;3.68;;;;;;;22.45;72.66;100577.45;;;;-52
2021/08/14 16:02:49;;;;;;;4.98;3.57;;;;;;;22.45;72.69;100575.24;;;;-53
2021/08/14 16:05:49;;;;;;;4.44;3.51;;;;;;;22.46;72.63;100569.63;;;;-54
2021/08/14 16:08:49;;;;;;;5.09;3.67;;;;;;;22.47;72.59;100567.06;;;;-53
2021/08/14 16:11:49;;;;;;;4.51;3.41;;;;;;;22.48;72.58;100566.60;;;;-52
2021/08/14 16:14:49;;;;;;;4.48;3.61;;;;;;;22.48;72.58;100565.20;;;;-51
2021/08/14 16:17:49;;;;;;;5.51;3.50;;;;;;;22.48;72.60;100559.81;;;;-51
2021/08/14 16:20:49;;;;;;;4.78;3.53;;;;;;;22.48;72.50;100557.28;;;;-53
2021/08/14 16:23:49;;;;;;;5.25;3.59;;;;;;;22.47;72.59;100550.82;;;;-52
2021/08/14 16:26:49;;;;;;;4.16;3.54;;;;;;;22.49;72.64;100552.70;;;;-55
2021/08/14 16:29:49;;;;;;;5.75;3.32;;;;;;;22.48;72.77;100548.78;;;;-61
2021/08/14 16:32:49;;;;;;;4.79;3.31;;;;;;;22.48;72.62;100548.70;;;;-59
2021/08/14 16:35:49;;;;;;;4.59;3.49;;;;;;;22.48;72.86;100546.91;;;;-58
2021/08/14 16:38:49;;;;;;;6.26;3.59;;;;;;;22.51;72.66;100546.88;;;;-57
2021/08/14 16:41:49;;;;;;;3.93;3.41;;;;;;;22.51;72.59;100546.64;;;;-64